createdAt,value
2018-02-02T00:02:07.612Z,57.10
2018-02-02T00:04:36.142Z,57.10
2018-02-02T00:07:04.728Z,57.10
2018-02-02T00:09:32.403Z,57.10
2018-02-02T00:11:59.974Z,57.10
2018-02-02T00:14:28.496Z,57.20
2018-02-02T00:16:56.149Z,57.20
2018-02-02T00:19:23.700Z,57.40
2018-02-02T00:21:52.054Z,57.70
2018-02-02T00:24:19.552Z,57.70
2018-02-02T00:26:47.906Z,57.80
2018-02-02T00:29:15.922Z,57.80
2018-02-02T00:31:44.321Z,58.00
2018-02-02T00:34:11.854Z,58.00
2018-02-02T00:36:39.491Z,58.20
2018-02-02T00:39:07.774Z,58.40
2018-02-02T00:41:35.269Z,58.40
2018-02-02T00:44:02.794Z,58.60
2018-02-02T00:46:31.072Z,58.70
2018-02-02T00:48:58.699Z,58.70
2018-02-02T00:51:31.871Z,58.70
2018-02-02T00:53:59.427Z,58.90
2018-02-02T00:56:26.957Z,59.00
2018-02-02T00:58:54.465Z,59.00
2018-02-02T01:01:22.797Z,59.50
2018-02-02T01:03:50.310Z,59.40
2018-02-02T01:06:19.330Z,59.60
2018-02-02T01:08:46.835Z,59.60
2018-02-02T01:11:14.345Z,59.90
2018-02-02T01:13:41.849Z,59.90
2018-02-02T01:16:10.201Z,60.90
2018-02-02T01:18:37.694Z,60.20
2018-02-02T01:21:06.101Z,60.40
2018-02-02T01:23:34.578Z,60.40
2018-02-02T01:26:02.287Z,60.40
2018-02-02T01:28:29.772Z,60.50
2018-02-02T01:30:57.301Z,60.70
2018-02-02T01:33:25.017Z,60.80
2018-02-02T01:35:52.544Z,61.00
2018-02-02T01:38:20.123Z,60.90
2018-02-02T01:40:48.382Z,61.10
2018-02-02T01:43:15.878Z,61.10
2018-02-02T01:45:43.963Z,61.10
2018-02-02T01:48:20.510Z,61.20
2018-02-02T01:50:49.884Z,61.40
2018-02-02T01:53:18.147Z,61.50
2018-02-02T01:55:46.413Z,61.70
2018-02-02T01:58:13.910Z,61.60
2018-02-02T02:00:42.274Z,61.90
2018-02-02T02:03:09.761Z,61.80
2018-02-02T02:05:37.320Z,61.90
2018-02-02T02:08:04.926Z,62.60
2018-02-02T02:10:33.185Z,62.00
2018-02-02T02:13:00.743Z,62.00
2018-02-02T02:15:28.272Z,62.10
2018-02-02T02:17:56.375Z,62.10
2018-02-02T02:20:23.857Z,62.20
2018-02-02T02:22:51.397Z,62.10
2018-02-02T02:25:19.068Z,62.10
2018-02-02T02:27:46.653Z,62.20
2018-02-02T02:30:14.145Z,62.30
2018-02-02T02:32:41.762Z,62.50
2018-02-02T02:35:10.011Z,62.60
2018-02-02T02:37:37.517Z,62.50
2018-02-02T02:40:05.822Z,62.90
2018-02-02T02:42:33.337Z,62.90
2018-02-02T02:45:00.832Z,63.10
2018-02-02T02:47:28.363Z,63.10
2018-02-02T02:49:55.888Z,62.60
2018-02-02T02:52:23.485Z,63.20
2018-02-02T02:54:50.994Z,63.30
2018-02-02T02:57:18.502Z,63.30
2018-02-02T02:59:46.816Z,63.50
2018-02-02T03:02:14.320Z,63.50
2018-02-02T03:04:42.370Z,63.60
2018-02-02T03:07:09.880Z,63.60
2018-02-02T03:09:37.461Z,63.80
2018-02-02T03:12:05.126Z,63.90
2018-02-02T03:14:32.717Z,64.00
2018-02-02T03:17:00.502Z,64.00
2018-02-02T03:19:28.852Z,64.20
2018-02-02T03:21:56.429Z,64.10
2018-02-02T03:24:23.921Z,64.40
2018-02-02T03:26:51.432Z,64.60
2018-02-02T03:29:18.943Z,64.70
2018-02-02T03:31:46.462Z,64.80
2018-02-02T03:34:14.729Z,64.70
2018-02-02T03:36:43.037Z,64.70
2018-02-02T03:39:11.305Z,64.70
2018-02-02T03:41:38.825Z,64.60
2018-02-02T03:44:06.378Z,64.70
2018-02-02T03:46:33.938Z,64.70
2018-02-02T03:49:02.188Z,65.00
2018-02-02T03:51:29.696Z,64.90
2018-02-02T03:53:58.040Z,65.30
2018-02-02T03:56:25.585Z,65.30
2018-02-02T03:58:53.088Z,65.30
2018-02-02T04:01:20.629Z,65.50
2018-02-02T04:03:48.114Z,65.50
2018-02-02T04:06:15.648Z,65.50
2018-02-02T04:08:43.151Z,65.60
2018-02-02T04:11:10.636Z,65.50
2018-02-02T04:13:38.147Z,65.60
2018-02-02T04:16:06.440Z,65.60
2018-02-02T04:18:34.000Z,65.60
2018-02-02T04:21:02.273Z,66.10
2018-02-02T04:23:29.913Z,66.00
2018-02-02T04:25:57.425Z,66.10
2018-02-02T04:28:25.665Z,66.00
2018-02-02T04:30:53.173Z,66.00
2018-02-02T04:33:20.667Z,66.10
2018-02-02T04:35:48.764Z,65.70
2018-02-02T04:38:16.256Z,66.20
2018-02-02T04:40:43.845Z,66.10
2018-02-02T04:43:11.475Z,66.20
2018-02-02T04:45:38.973Z,66.30
2018-02-02T04:48:06.555Z,66.20
2018-02-02T04:50:34.098Z,66.30
2018-02-02T04:53:01.633Z,66.60
2018-02-02T04:55:30.024Z,66.90
2018-02-02T04:57:58.334Z,66.90
2018-02-02T05:00:25.882Z,66.90
2018-02-02T05:02:53.362Z,66.90
2018-02-02T05:05:20.894Z,67.10
2018-02-02T05:07:49.893Z,67.20
2018-02-02T05:10:17.507Z,67.10
2018-02-02T05:12:45.034Z,67.30
2018-02-02T05:15:12.571Z,67.30
2018-02-02T05:17:40.099Z,67.30
2018-02-02T05:20:07.814Z,67.30
2018-02-02T05:22:35.365Z,66.80
2018-02-02T05:25:03.764Z,67.60
2018-02-02T05:27:31.367Z,67.50
2018-02-02T05:29:58.912Z,67.60
2018-02-02T05:32:26.530Z,67.50
2018-02-02T05:34:54.065Z,67.60
2018-02-02T05:37:21.562Z,67.80
2018-02-02T05:39:49.172Z,67.80
2018-02-02T05:42:16.689Z,68.40
2018-02-02T05:44:44.273Z,67.60
2018-02-02T05:47:11.760Z,67.70
2018-02-02T05:49:39.284Z,67.60
2018-02-02T05:52:06.784Z,67.70
2018-02-02T05:54:35.093Z,67.50
2018-02-02T05:57:02.589Z,67.50
2018-02-02T05:59:30.885Z,67.40
2018-02-02T06:01:59.167Z,67.40
2018-02-02T06:04:26.709Z,67.40
2018-02-02T06:06:54.189Z,67.50
2018-02-02T06:09:21.711Z,67.50
2018-02-02T06:11:49.288Z,67.60
2018-02-02T06:14:16.829Z,67.60
2018-02-02T06:16:45.164Z,67.40
2018-02-02T06:19:38.504Z,67.40
2018-02-02T06:22:06.001Z,67.30
2018-02-02T06:24:33.576Z,67.40
2018-02-02T06:27:01.089Z,67.60
2018-02-02T06:29:29.383Z,68.10
2018-02-02T06:31:57.717Z,67.50
2018-02-02T06:34:25.327Z,67.40
2018-02-02T06:36:58.488Z,67.40
2018-02-02T06:39:26.895Z,67.30
2018-02-02T06:41:54.496Z,67.30
2018-02-02T06:44:22.069Z,67.10
2018-02-02T06:46:49.615Z,67.20
2018-02-02T06:49:17.161Z,67.20
2018-02-02T06:51:45.417Z,67.20
2018-02-02T06:54:13.698Z,67.10
2018-02-02T06:56:41.233Z,67.10
2018-02-02T06:59:09.012Z,66.90
2018-02-02T07:01:36.674Z,66.80
2018-02-02T07:04:05.070Z,66.60
2018-02-02T07:06:32.562Z,66.60
2018-02-02T07:09:00.097Z,66.80
2018-02-02T07:11:27.667Z,66.70
2018-02-02T07:13:55.245Z,66.70
2018-02-02T07:16:23.513Z,66.20
2018-02-02T07:18:51.229Z,66.10
2018-02-02T07:21:18.763Z,66.10
2018-02-02T07:23:46.306Z,66.00
2018-02-02T07:26:13.893Z,66.40
2018-02-02T07:28:41.441Z,65.50
2018-02-02T07:31:08.978Z,65.50
2018-02-02T07:33:36.712Z,66.00
2018-02-02T07:36:04.229Z,65.20
2018-02-02T07:38:31.853Z,64.80
2018-02-02T07:40:59.351Z,64.90
2018-02-02T07:43:26.957Z,65.00
2018-02-02T07:45:54.574Z,64.90
2018-02-02T07:48:22.189Z,64.60
2018-02-02T07:50:49.838Z,64.60
2018-02-02T07:53:17.378Z,64.40
2018-02-02T07:55:44.945Z,64.40
2018-02-02T07:58:14.020Z,63.80
2018-02-02T08:00:47.246Z,63.70
2018-02-02T08:03:14.771Z,69.20
2018-02-02T08:05:43.064Z,62.80
2018-02-02T08:08:11.434Z,62.80
2018-02-02T08:10:39.768Z,63.20
2018-02-02T08:13:07.307Z,62.50
2018-02-02T08:15:34.816Z,62.00
2018-02-02T08:18:02.335Z,62.00
2018-02-02T08:20:29.911Z,62.00
2018-02-02T08:22:57.439Z,62.00
2018-02-02T08:25:24.961Z,62.00
2018-02-02T08:27:53.243Z,62.20
2018-02-02T08:30:21.618Z,62.10
2018-02-02T08:32:49.121Z,62.00
2018-02-02T08:35:17.418Z,61.50
2018-02-02T08:37:44.946Z,61.50
2018-02-02T08:40:12.561Z,61.30
2018-02-02T08:42:40.133Z,61.20
2018-02-02T08:45:07.690Z,61.20
2018-02-02T08:47:36.000Z,61.40
2018-02-02T08:50:03.609Z,61.40
2018-02-02T08:52:31.212Z,61.10
2018-02-02T08:54:59.547Z,61.10
2018-02-02T08:57:27.120Z,61.00
2018-02-02T08:59:54.690Z,61.00
2018-02-02T09:02:22.252Z,60.90
2018-02-02T09:04:49.802Z,60.80
2018-02-02T09:07:18.111Z,60.30
2018-02-02T09:09:45.652Z,60.20
2018-02-02T09:12:13.195Z,60.30
2018-02-02T09:14:40.741Z,60.00
2018-02-02T09:17:08.376Z,59.90
2018-02-02T09:19:36.670Z,60.20
2018-02-02T09:22:03.943Z,60.20
2018-02-02T09:24:31.450Z,60.10
2018-02-02T09:26:58.471Z,59.80
2018-02-02T09:29:26.049Z,59.30
2018-02-02T09:31:53.886Z,59.40
2018-02-02T09:34:21.413Z,59.20
2018-02-02T09:36:48.941Z,59.00
2018-02-02T09:39:17.260Z,58.60
2018-02-02T09:41:44.831Z,58.60
2018-02-02T09:44:12.379Z,58.50
2018-02-02T09:46:40.720Z,58.40
2018-02-02T09:49:08.299Z,58.40
2018-02-02T09:51:36.255Z,58.10
2018-02-02T09:54:03.830Z,57.60
2018-02-02T09:56:31.494Z,57.40
2018-02-02T09:58:58.995Z,56.90
2018-02-02T10:01:26.519Z,56.00
2018-02-02T10:03:54.042Z,55.20
2018-02-02T10:06:21.581Z,55.00
2018-02-02T10:08:49.316Z,55.20
2018-02-02T10:11:16.884Z,55.20
2018-02-02T10:13:45.293Z,53.80
2018-02-02T10:16:13.695Z,52.30
2018-02-02T10:18:41.236Z,52.30
2018-02-02T10:21:08.770Z,51.00
2018-02-02T10:23:36.310Z,49.90
2018-02-02T10:26:03.892Z,49.00
2018-02-02T10:28:31.440Z,47.60
2018-02-02T10:30:59.754Z,47.10
2018-02-02T10:33:27.278Z,47.00
2018-02-02T10:35:54.878Z,46.70
2018-02-02T10:38:22.381Z,45.60
2018-02-02T10:40:49.950Z,44.60
2018-02-02T10:43:17.853Z,43.80
2018-02-02T10:45:45.358Z,44.10
2018-02-02T10:48:13.704Z,43.90
2018-02-02T10:50:41.288Z,43.90
2018-02-02T10:53:09.025Z,45.30
2018-02-02T10:55:36.605Z,45.60
2018-02-02T10:58:04.181Z,46.60
2018-02-02T11:00:37.633Z,47.10
2018-02-02T11:03:10.986Z,47.30
2018-02-02T11:05:38.521Z,47.40
2018-02-02T11:08:06.029Z,47.20
2018-02-02T11:10:33.807Z,46.80
2018-02-02T11:13:01.362Z,45.10
2018-02-02T11:15:29.757Z,44.70
2018-02-02T11:17:57.270Z,44.60
2018-02-02T11:20:24.782Z,44.40
2018-02-02T11:22:53.065Z,45.60
2018-02-02T11:25:21.395Z,46.20
2018-02-02T11:27:48.886Z,46.20
2018-02-02T11:30:16.627Z,46.30
2018-02-02T11:32:44.201Z,46.10
2018-02-02T11:35:11.862Z,46.30
2018-02-02T11:37:40.164Z,47.10
2018-02-02T11:40:07.825Z,47.10
2018-02-02T11:42:35.359Z,47.60
2018-02-02T11:45:03.892Z,48.10
2018-02-02T11:47:31.421Z,48.10
2018-02-02T11:49:58.938Z,48.30
2018-02-02T11:52:26.545Z,48.50
2018-02-02T11:54:54.138Z,48.60
2018-02-02T11:57:21.736Z,48.50
2018-02-02T11:59:50.034Z,48.10
2018-02-02T12:02:17.586Z,48.00
2018-02-02T12:04:45.898Z,47.50
2018-02-02T12:07:13.429Z,47.50
2018-02-02T12:09:40.972Z,47.70
2018-02-02T12:12:08.605Z,47.60
2018-02-02T12:14:36.937Z,48.40
2018-02-02T12:17:04.630Z,48.40
2018-02-02T12:19:32.359Z,48.30
2018-02-02T12:22:18.559Z,48.50
2018-02-02T12:24:52.614Z,48.70
2018-02-02T12:27:20.423Z,48.80
2018-02-02T12:29:54.419Z,49.30
2018-02-02T12:32:38.646Z,48.80
2018-02-02T12:35:14.822Z,49.00
2018-02-02T12:37:42.376Z,49.10
2018-02-02T12:40:10.692Z,49.40
2018-02-02T12:42:38.492Z,49.40
2018-02-02T12:45:06.921Z,49.80
2018-02-02T12:47:36.197Z,50.10
2018-02-02T12:50:08.552Z,50.00
2018-02-02T12:52:36.182Z,50.80
2018-02-02T12:55:04.593Z,50.30
2018-02-02T12:57:33.108Z,50.40
2018-02-02T13:00:00.926Z,50.40
2018-02-02T13:02:28.484Z,50.80
2018-02-02T13:04:56.050Z,50.40
2018-02-02T13:07:23.574Z,50.30
2018-02-02T13:09:51.130Z,50.50
2018-02-02T13:12:18.658Z,50.70
2018-02-02T13:14:46.231Z,50.80
2018-02-02T13:17:13.748Z,50.80
2018-02-02T13:19:41.254Z,50.60
2018-02-02T13:22:08.838Z,50.50
2018-02-02T13:24:36.351Z,50.60
2018-02-02T13:27:03.861Z,50.40
2018-02-02T13:29:31.393Z,50.50
2018-02-02T13:32:00.412Z,50.70
2018-02-02T13:34:28.791Z,51.10
2018-02-02T13:36:56.389Z,50.60
2018-02-02T13:39:24.797Z,50.60
2018-02-02T13:41:52.286Z,50.50
2018-02-02T13:44:19.833Z,50.70
2018-02-02T13:46:47.324Z,50.70
2018-02-02T13:49:14.831Z,50.80
2018-02-02T13:51:42.386Z,50.70
2018-02-02T13:54:09.937Z,50.40
2018-02-02T13:56:37.701Z,50.40
2018-02-02T13:59:05.227Z,50.40
2018-02-02T14:01:33.700Z,50.80
2018-02-02T14:04:01.339Z,50.80
2018-02-02T14:06:28.862Z,50.70
2018-02-02T14:08:56.384Z,50.80
2018-02-02T14:11:24.082Z,50.70
2018-02-02T14:13:51.710Z,51.00
2018-02-02T14:16:20.020Z,51.00
2018-02-02T14:18:47.541Z,50.90
2018-02-02T14:21:16.573Z,51.80
2018-02-02T14:23:44.893Z,51.50
2018-02-02T14:26:12.407Z,51.50
2018-02-02T14:28:39.915Z,51.50
2018-02-02T14:31:07.490Z,51.30
2018-02-02T14:33:35.002Z,51.20
2018-02-02T14:36:03.681Z,51.10
2018-02-02T14:38:31.210Z,51.20
2018-02-02T14:40:58.774Z,51.60
2018-02-02T14:43:26.331Z,52.00
2018-02-02T14:45:54.046Z,52.50
2018-02-02T14:48:22.945Z,54.00
2018-02-02T14:50:51.430Z,54.50
2018-02-02T14:53:18.935Z,54.50
2018-02-02T14:55:46.548Z,54.90
2018-02-02T14:58:14.110Z,55.50
2018-02-02T15:00:41.787Z,55.80
2018-02-02T15:03:09.314Z,56.00
2018-02-02T15:05:37.003Z,56.20
2018-02-02T15:08:05.300Z,56.60
2018-02-02T15:10:33.632Z,56.90
2018-02-02T15:13:01.294Z,56.80
2018-02-02T15:15:28.903Z,57.30
2018-02-02T15:17:56.589Z,57.70
2018-02-02T15:20:24.109Z,57.90
2018-02-02T15:23:07.437Z,58.10
2018-02-02T15:25:34.949Z,58.30
2018-02-02T15:28:03.214Z,58.60
2018-02-02T15:30:30.721Z,58.60
2018-02-02T15:32:58.249Z,58.80
2018-02-02T15:35:25.839Z,59.00
2018-02-02T15:37:53.414Z,59.40
2018-02-02T15:40:20.967Z,59.70
2018-02-02T15:42:48.516Z,60.40
2018-02-02T15:45:16.804Z,61.40
2018-02-02T15:47:45.098Z,62.40
2018-02-02T15:50:13.374Z,62.30
2018-02-02T15:52:40.869Z,62.30
2018-02-02T15:55:08.531Z,62.30
2018-02-02T15:57:36.886Z,62.20
2018-02-02T16:00:04.437Z,62.20
2018-02-02T16:02:32.386Z,62.10
2018-02-02T16:04:59.931Z,62.60
2018-02-02T16:07:28.227Z,62.50
2018-02-02T16:09:55.897Z,62.50
2018-02-02T16:12:24.304Z,62.50
2018-02-02T16:14:51.831Z,62.50
2018-02-02T16:17:19.618Z,62.30
2018-02-02T16:19:47.240Z,62.60
2018-02-02T16:22:14.764Z,62.60
2018-02-02T16:24:42.381Z,62.70
2018-02-02T16:27:09.903Z,62.70
2018-02-02T16:29:37.526Z,63.00
2018-02-02T16:32:05.198Z,63.30
2018-02-02T16:34:32.772Z,63.60
2018-02-02T16:37:00.314Z,63.80
2018-02-02T16:39:28.620Z,64.10
2018-02-02T16:41:56.295Z,64.10
2018-02-02T16:44:23.825Z,64.30
2018-02-02T16:46:51.451Z,64.50
2018-02-02T16:49:19.113Z,64.70
2018-02-02T16:51:46.674Z,64.70
2018-02-02T16:54:15.037Z,65.00
2018-02-02T16:56:42.613Z,64.90
2018-02-02T16:59:10.170Z,65.00
2018-02-02T17:01:37.697Z,65.30
2018-02-02T17:04:05.281Z,65.70
2018-02-02T17:06:32.845Z,65.90
2018-02-02T17:09:00.400Z,66.10
2018-02-02T17:11:27.910Z,66.50
2018-02-02T17:13:55.495Z,66.80
2018-02-02T17:16:23.025Z,66.70
2018-02-02T17:18:50.694Z,66.90
2018-02-02T17:21:18.264Z,66.90
2018-02-02T17:23:45.792Z,67.10
2018-02-02T17:26:13.346Z,67.20
2018-02-02T17:28:40.884Z,67.20
2018-02-02T17:31:08.554Z,67.60
2018-02-02T17:33:36.142Z,67.50
2018-02-02T17:36:04.034Z,67.70
2018-02-02T17:38:31.655Z,68.20
2018-02-02T17:40:59.930Z,68.30
2018-02-02T17:43:28.333Z,68.30
2018-02-02T17:45:56.680Z,68.40
2018-02-02T17:48:24.233Z,68.40
2018-02-02T17:50:51.912Z,68.50
2018-02-02T17:53:19.589Z,68.40
2018-02-02T17:55:47.132Z,68.50
2018-02-02T17:58:14.689Z,68.90
2018-02-02T18:00:49.242Z,68.70
2018-02-02T18:03:16.900Z,68.70
2018-02-02T18:05:45.310Z,68.90
2018-02-02T18:08:12.828Z,68.90
2018-02-02T18:10:40.334Z,68.90
2018-02-02T18:13:08.605Z,69.10
2018-02-02T18:15:36.195Z,69.00
2018-02-02T18:18:03.880Z,69.10
2018-02-02T18:20:31.575Z,69.00
2018-02-02T18:22:59.118Z,68.90
2018-02-02T18:25:26.758Z,69.00
2018-02-02T18:27:54.517Z,69.30
2018-02-02T18:30:22.048Z,69.20
2018-02-02T18:32:49.616Z,69.10
2018-02-02T18:35:17.121Z,69.20
2018-02-02T18:37:48.576Z,69.70
2018-02-02T18:40:16.253Z,69.30
2018-02-02T18:42:43.797Z,69.50
2018-02-02T18:45:11.435Z,69.30
2018-02-02T18:47:40.198Z,69.30
2018-02-02T18:50:08.092Z,69.30
2018-02-02T18:52:35.651Z,69.80
2018-02-02T18:55:03.378Z,69.80
2018-02-02T18:57:31.069Z,70.00
2018-02-02T18:59:58.651Z,70.20
2018-02-02T19:02:26.251Z,70.30
2018-02-02T19:04:53.786Z,70.50
2018-02-02T19:07:21.328Z,70.30
2018-02-02T19:09:48.863Z,70.20
2018-02-02T19:12:16.497Z,70.90
2018-02-02T19:14:44.103Z,70.30
2018-02-02T19:17:11.682Z,70.20
2018-02-02T19:19:39.481Z,69.90
2018-02-02T19:22:08.627Z,70.00
2018-02-02T19:24:36.956Z,70.00
2018-02-02T19:27:04.958Z,70.20
2018-02-02T19:29:32.529Z,70.20
2018-02-02T19:32:00.103Z,70.10
2018-02-02T19:34:27.689Z,70.00
2018-02-02T19:36:56.022Z,69.90
2018-02-02T19:39:23.639Z,69.90
2018-02-02T19:41:51.358Z,69.90
2018-02-02T19:44:18.963Z,70.20
2018-02-02T19:46:46.615Z,70.10
2018-02-02T19:49:14.252Z,69.90
2018-02-02T19:54:16.041Z,69.90
2018-02-02T19:56:44.352Z,69.60
2018-02-02T19:59:13.179Z,69.60
2018-02-02T20:01:41.565Z,69.70
2018-02-02T20:04:09.230Z,69.80
2018-02-02T20:06:36.841Z,70.00
2018-02-02T20:11:40.048Z,69.80
2018-02-02T20:14:08.893Z,71.60
2018-02-02T20:16:36.642Z,69.50
2018-02-02T20:19:04.218Z,68.90
2018-02-02T20:21:32.606Z,67.50
2018-02-02T20:24:00.278Z,67.40
2018-02-02T20:26:27.913Z,67.10
2018-02-02T20:28:56.084Z,67.40
2018-02-02T20:31:23.695Z,67.90
2018-02-02T20:33:51.353Z,68.20
2018-02-02T20:36:19.090Z,68.40
2018-02-02T20:38:46.688Z,68.50
2018-02-02T20:41:14.268Z,68.90
2018-02-02T20:43:41.949Z,69.00
2018-02-02T20:46:09.597Z,69.20
2018-02-02T20:48:39.122Z,69.30
2018-02-02T20:51:07.831Z,69.60
2018-02-02T20:53:35.605Z,69.50
2018-02-02T20:56:03.215Z,69.50
2018-02-02T20:58:30.911Z,69.40
2018-02-02T21:00:59.248Z,69.80
2018-02-02T21:03:26.818Z,69.70
2018-02-02T21:05:54.348Z,69.80
2018-02-02T21:08:21.900Z,69.90
2018-02-02T21:10:49.516Z,69.90
2018-02-02T21:13:18.797Z,70.00
2018-02-02T21:15:47.185Z,70.00
2018-02-02T21:18:14.739Z,70.20
2018-02-02T21:20:42.965Z,70.20
2018-02-02T21:23:11.344Z,70.20
2018-02-02T21:25:38.871Z,70.10
2018-02-02T21:28:06.466Z,70.40
2018-02-02T21:30:34.142Z,70.50
2018-02-02T21:33:01.772Z,70.50
2018-02-02T21:35:29.315Z,70.50
2018-02-02T21:37:57.791Z,70.60
2018-02-02T21:40:25.308Z,70.50
2018-02-02T21:42:52.902Z,70.20
2018-02-02T21:45:20.493Z,70.10
2018-02-02T21:47:48.058Z,70.30
2018-02-02T21:50:15.579Z,70.30
2018-02-02T21:52:43.944Z,70.30
2018-02-02T21:55:11.493Z,70.30
2018-02-02T21:57:39.788Z,70.30
2018-02-02T22:00:07.629Z,70.20
2018-02-02T22:02:35.234Z,70.30
2018-02-02T22:05:02.787Z,70.20
2018-02-02T22:07:30.355Z,70.10
2018-02-02T22:09:58.642Z,70.20
2018-02-02T22:12:26.156Z,70.30
2018-02-02T22:14:53.695Z,70.20
2018-02-02T22:17:21.237Z,70.10
2018-02-02T22:19:48.811Z,70.10
2018-02-02T22:22:16.333Z,70.10
2018-02-02T22:24:43.980Z,70.20
2018-02-02T22:27:11.542Z,70.20
2018-02-02T22:29:39.161Z,70.30
2018-02-02T22:32:06.710Z,70.40
2018-02-02T22:34:35.261Z,70.60
2018-02-02T22:37:02.845Z,70.50
2018-02-02T22:39:30.427Z,70.40
2018-02-02T22:41:57.957Z,70.30
2018-02-02T22:44:26.285Z,70.30
2018-02-02T22:46:53.828Z,70.30
2018-02-02T22:49:21.401Z,70.30
2018-02-02T22:51:48.922Z,70.20
2018-02-02T22:54:16.569Z,70.20
2018-02-02T22:56:44.057Z,70.00
2018-02-02T22:59:11.631Z,69.90
2018-02-02T23:01:39.262Z,69.90
2018-02-02T23:04:06.754Z,70.10
2018-02-02T23:06:35.197Z,70.10
2018-02-02T23:09:03.536Z,70.30
2018-02-02T23:11:31.151Z,70.30
2018-02-02T23:13:58.701Z,70.50
2018-02-02T23:16:26.291Z,71.00
2018-02-02T23:18:54.008Z,70.70
2018-02-02T23:21:21.520Z,70.80
2018-02-02T23:23:49.150Z,70.80
2018-02-02T23:26:16.862Z,70.80
2018-02-02T23:28:44.352Z,70.80
2018-02-02T23:31:11.858Z,70.80
2018-02-02T23:33:39.968Z,70.80
2018-02-02T23:36:07.532Z,70.80
2018-02-02T23:38:35.086Z,70.70
2018-02-02T23:41:02.608Z,70.70
2018-02-02T23:43:30.230Z,70.70
2018-02-02T23:45:57.738Z,70.80
2018-02-02T23:48:25.244Z,70.70
2018-02-02T23:50:53.542Z,71.00
2018-02-02T23:53:22.157Z,70.80
2018-02-02T23:55:49.690Z,70.70
2018-02-02T23:58:17.231Z,70.70
